WetterOnline ( https://www.wetteronline.de )

Wetter aktuell Kempten

Aktuelles Wetter: Kempten (705m)

6-stündlich | Neueste Meldungen
Ortszeit Temperatur Wetter
Fr, 09.12. 13:00 0.4° C Schneegriesel
Fr, 09.12. 7:00 -1.5° C wolkig
Fr, 09.12. 1:00 -2.5° C wolkig
Do, 08.12. 19:00 -1.5° C bewölkt
Do, 08.12. 13:00 2.3° C bewölkt
Do, 08.12. 7:00 0.0° C bedeckt
Do, 08.12. 1:00 -0.2° C bedeckt
Mi, 07.12. 19:00 1.1° C bedeckt
Ortszeit Temperatur Wetter
Fr, 09.12. 17:00 0.6° C leichter Schneefall
Fr, 09.12. 16:40 0.6° C leichter Schneefall
Fr, 09.12. 16:30 0.7° C leichter Schneefall
Fr, 09.12. 16:20 0.7° C leichter Schneefall
Fr, 09.12. 16:10 0.7° C leichter Schneefall
Fr, 09.12. 16:00 0.9° C leichter Schneefall
Fr, 09.12. 15:50 0.9° C leichter Schneefall
Fr, 09.12. 15:30 1.1° C leichter Schneefall
Fr, 09.12. 15:00 1.2° C bedeckt
Fr, 09.12. 14:30 1.1° C bewölkt
Fr, 09.12. 14:00 0.9° C bewölkt
Ortszeit Relative Feuchte Sichtweite
Fr, 09.12. 13:00 80% 23 km
Fr, 09.12. 7:00 87% 17 km
Fr, 09.12. 1:00 93% 6 km
Do, 08.12. 19:00 89% 12 km
Do, 08.12. 13:00 66% 40 km
Do, 08.12. 7:00 93% 8 km
Do, 08.12. 1:00 96% 6 km
Mi, 07.12. 19:00 88% 17 km
Ortszeit Relative Feuchte Sichtweite
Fr, 09.12. 17:00 88% 12 km
Fr, 09.12. 16:40 88% -
Fr, 09.12. 16:30 86% 12 km
Fr, 09.12. 16:20 86% -
Fr, 09.12. 16:10 86% -
Fr, 09.12. 16:00 85% 15 km
Fr, 09.12. 15:50 85% -
Fr, 09.12. 15:30 83% 21 km
Fr, 09.12. 15:00 82% 23 km
Fr, 09.12. 14:30 80% 29 km
Fr, 09.12. 14:00 80% 28 km
Ortszeit Niederschlagsmenge Niederschlagsart
Fr, 09.12. 13:00 0.1 l/m2 in 6 Std. Schnee, Sprühregen
Fr, 09.12. 7:00 0.0 l/m2 in 12 Std. -
Fr, 09.12. 1:00 0.0 l/m2 in 6 Std. -
Do, 08.12. 19:00 0.0 l/m2 in 12 Std. -
Do, 08.12. 13:00 0.0 l/m2 in 6 Std. -
Do, 08.12. 7:00 0.0 l/m2 in 12 Std. -
Do, 08.12. 1:00 0.0 l/m2 in 6 Std. -
Mi, 07.12. 19:00 0.4 l/m2 in 12 Std. -
Ortszeit Niederschlagsmenge Niederschlagsart
Fr, 09.12. 17:00 <0.05 l/m2 in 1 Std. Schnee
Fr, 09.12. 16:40 keine Meldung -
Fr, 09.12. 16:30 <0.05 l/m2 in 1 Std. -
Fr, 09.12. 16:20 keine Meldung -
Fr, 09.12. 16:10 keine Meldung -
Fr, 09.12. 16:00 <0.05 l/m2 in 1 Std. Schnee, Niederschlag
Fr, 09.12. 15:50 keine Meldung -
Fr, 09.12. 15:30 <0.05 l/m2 in 1 Std. -
Fr, 09.12. 15:00 <0.05 l/m2 in 1 Std. Schnee, Niederschlag
Fr, 09.12. 14:30 0.0 l/m2 in 1 Std. -
Fr, 09.12. 14:00 <0.05 l/m2 in 1 Std. Schnee
Ortszeit Stärke Spitze Richtung
km/h Bft. km/h Grad Sektor
Fr, 09.12. 13:00 4 1 7 360° N
Fr, 09.12. 7:00 4 1 7 50° NO
Fr, 09.12. 1:00 4 1 11 110° O
Do, 08.12. 19:00 4 1 14 100° O
Do, 08.12. 13:00 6 1 15 210° SW
Do, 08.12. 7:00 2 1 6 50° NO
Do, 08.12. 1:00 2 1 6 100° O
Mi, 07.12. 19:00 0 0 14 - -
Ortszeit Stärke Spitze Richtung
km/h Bft. km/h Grad Sektor
Fr, 09.12. 17:00 4 1 11 70° O
Fr, 09.12. 16:40 4 1 - 70° O
Fr, 09.12. 16:30 4 1 11 80° O
Fr, 09.12. 16:20 4 1 - 80° O
Fr, 09.12. 16:10 4 1 - 70° O
Fr, 09.12. 16:00 4 1 7 50° NO
Fr, 09.12. 15:50 4 1 - 50° NO
Fr, 09.12. 15:30 4 1 7 50° NO
Fr, 09.12. 15:00 4 1 11 350° N
Fr, 09.12. 14:30 6 1 13 20° N
Fr, 09.12. 14:00 4 1 7 10° N
Ortszeit Untergrenze Bedeckung Gattung
total tief tief mittel hoch
Fr, 09.12. 13:00 - 0/8 0/8 - - -
Fr, 09.12. 7:00 1800 m 6/8 6/8 - - -
Fr, 09.12. 1:00 2400 m 8/8 2/8 - - -
Do, 08.12. 19:00 540 m 7/8 7/8 - - -
Do, 08.12. 13:00 810 m 7/8 7/8 - - -
Do, 08.12. 7:00 870 m 8/8 8/8 - - -
Do, 08.12. 1:00 390 m 8/8 8/8 - - -
Mi, 07.12. 19:00 270 m 8/8 8/8 - - -
Ortszeit Bedeckungsgrad in Achtel und Wolkenuntergrenze
Fr, 09.12. 17:00 7(390m) 7(1050m) 8(1800m)
Fr, 09.12. 16:40 8
Fr, 09.12. 16:30 7(360m) 7(1050m) 8(1800m)
Fr, 09.12. 16:20 7(360m) 7(1050m) 8(1800m)
Fr, 09.12. 16:10 8
Fr, 09.12. 16:00 7(390m) 8(1050m)
Fr, 09.12. 15:50 7(390m) 8(1050m)
Fr, 09.12. 15:30 7(390m) 7(660m) 8(2700m)
Fr, 09.12. 15:00 3(360m) 7(1440m) 8(1800m)
Fr, 09.12. 14:30 1(1140m) 7(1800m) 7(2700m)
Fr, 09.12. 14:00 3(1800m) 7(2400m) 7(3300m)
Ortszeit Luftdruck NN (hPa) Tendenz (hPa in 3 Std.)
Fr, 09.12. 13:00 1002 - 1,6
Fr, 09.12. 7:00 1005 - 1,8
Fr, 09.12. 1:00 1009 - 1,2
Do, 08.12. 19:00 1010 - 0,2
Do, 08.12. 13:00 1010 - 1,6
Do, 08.12. 7:00 1012 - 1,1
Do, 08.12. 1:00 1015 - 1,1
Mi, 07.12. 19:00 1016 - 0,5
Ortszeit Luftdruck NN (hPa) Tendenz (hPa in 3 Std.)
Fr, 09.12. 17:00 1002 + 1,1
Fr, 09.12. 16:40 1002 keine Meldung
Fr, 09.12. 16:30 1002 + 0,7
Fr, 09.12. 16:20 1002 keine Meldung
Fr, 09.12. 16:10 1002 keine Meldung
Fr, 09.12. 16:00 1002 + 0,3
Fr, 09.12. 15:50 1002 keine Meldung
Fr, 09.12. 15:30 1002 - 0,1
Fr, 09.12. 15:00 1001 - 0,6
Fr, 09.12. 14:30 1001 - 1,1
Fr, 09.12. 14:00 1001 - 1,6
Ortszeit Schneehöhe (cm)
Fr, 09.12. 13:00 0
Fr, 09.12. 7:00 0
Fr, 09.12. 1:00 0
Do, 08.12. 19:00 0
Do, 08.12. 13:00 0
Do, 08.12. 7:00 0
Do, 08.12. 1:00 0
Mi, 07.12. 19:00 0
Ortszeit Schneehöhe (cm)
Fr, 09.12. 17:00 0
Fr, 09.12. 16:40 0
Fr, 09.12. 16:30 0
Fr, 09.12. 16:20 0
Fr, 09.12. 16:10 0
Fr, 09.12. 16:00 0
Fr, 09.12. 15:50 0
Fr, 09.12. 15:30 0
Fr, 09.12. 15:00 0
Fr, 09.12. 14:30 0
Fr, 09.12. 14:00 0
Link zu dieser Seite / Seite empfehlen

Das Wetter in ...